ADDS METAR Data INFO
IDs: Format: Raw Decoded Include TAF

Data at: 1507 UTC 23 Oct 2017

KGUY 231453Z AUTO 01013KT 10SM CLR 14/02 A3025 RMK AO2 SLP223 T01440022 53046
KGUY 231353Z AUTO 34007KT 10SM CLR 11/03 A3018 RMK AO2 SLP205 T01060028
KGUY 231253Z AUTO 31008KT 10SM CLR 09/02 A3012 RMK AO2 SLP183 T00940017
KGUY 231153Z AUTO 33006KT 10SM CLR 08/02 A3010 RMK AO2 SLP171 T00830017 10100 20050 53018 $
KGUY 231053Z AUTO 30006KT 10SM CLR 08/02 A3007 RMK AO2 SLP160 T00780022 $
KGUY 230953Z AUTO 25003KT 10SM CLR 06/02 A3004 RMK AO2 SLP149 T00610022 $
KGUY 230853Z AUTO 00000KT 10SM CLR 07/02 A3004 RMK AO2 SLP148 T00720017 56010 $
KGUY 230753Z AUTO 22006KT 10SM CLR 08/02 A3005 RMK AO2 SLP151 T00780017 $
KGUY 230653Z AUTO 00000KT 10SM CLR 08/01 A3006 RMK AO2 SLP155 T00780011 $
KGUY 230553Z AUTO 25007KT 10SM CLR 10/02 A3007 RMK AO2 SLP159 T01000017 10167 20083 402221006 58004 $
KGUY 230453Z AUTO 21009KT 10SM CLR 09/02 A3008 RMK AO2 SLP164 T00940022 $
KGUY 230353Z AUTO 22008KT 10SM CLR 10/02 A3009 RMK AO2 SLP171 T01000017 $
KGUY 230253Z AUTO 21008KT 10SM CLR 11/02 A3008 RMK AO2 SLP174 T01060017 58006 $
KGUY 230153Z AUTO 20006KT 10SM CLR 11/01 A3010 RMK AO2 SLP185 T01060011 $
KGUY 230053Z AUTO 20007KT 10SM CLR 13/00 A3011 RMK AO2 SLP188 T01280000 $
KGUY 222353Z AUTO 20007KT 10SM CLR 17/M02 A3010 RMK AO2 SLP181 T01671017 10222 20167 55010 $
KGUY 222253Z AUTO 21011KT 10SM CLR 21/M03 A3010 RMK AO2 SLP175 T02061028 $
KGUY 222153Z AUTO 22011KT 10SM CLR 22/M04 A3012 RMK AO2 SLP178 T02221039 $
KGUY 222053Z AUTO 21010G18KT 10SM CLR 22/M05 A3014 RMK AO2 SLP185 T02171050 56031 $
KGUY 221953Z AUTO 24014G21KT 10SM CLR 21/M06 A3016 RMK AO2 SLP195 T02111061 $
KGUY 221853Z AUTO 24014G21KT 10SM CLR 20/M07 A3020 RMK AO2 SLP207 T02001067 $
KGUY 221753Z AUTO 22012G20KT 10SM CLR 19/M07 A3024 RMK AO2 SLP219 T01891067 10194 21006 58014 $
KGUY 221653Z AUTO 21010KT 10SM CLR 17/M06 A3025 RMK AO2 SLP228 T01721056 $
KGUY 221553Z AUTO 25004KT 10SM CLR 14/M03 A3028 RMK AO2 SLP238 T01441033 $
KGUY 221453Z AUTO 27006KT 10SM CLR 09/M02 A3028 RMK AO2 SLP242 T00941022 53008 $
KGUY 221353Z AUTO 00000KT 10SM CLR 03/M03 A3026 RMK AO2 SLP243 T00331028 $
KGUY 221253Z AUTO 00000KT 10SM CLR 01/M05 A3025 RMK AO2 SLP242 T00111050 $
KGUY 221153Z AUTO 23004KT 10SM CLR 02/M05 A3025 RMK AO2 SLP236 T00221050 10072 20017 51022 $
KGUY 221053Z AUTO 29007KT 10SM CLR 04/M05 A3024 RMK AO2 SLP226 T00391050 $
KGUY 220953Z AUTO 30003KT 10SM CLR 04/M06 A3021 RMK AO2 SLP213 T00391056 $
KGUY 220853Z AUTO 34007KT 10SM CLR 03/M06 A3018 RMK AO2 SLP206 T00331056 51004 $
KGUY 220753Z AUTO 33006KT 10SM CLR 04/M05 A3018 RMK AO2 SLP203 T00441050 $
KGUY 220653Z AUTO 31010KT 10SM CLR 06/M05 A3018 RMK AO2 SLP203 T00611050 $
KGUY 220553Z AUTO 32006KT 10SM CLR 07/M04 A3017 RMK AO2 SLP199 T00671039 10144 20056 401940056 53034 $
KGUY 220453Z AUTO 33005KT 10SM CLR 07/M03 A3012 RMK AO2 SLP182 T00671028 $
KGUY 220353Z AUTO 32009KT 10SM CLR 08/M02 A3008 RMK AO2 SLP164 T00831017 $